createdAt,value
2022-12-14T00:01:23.410Z,61.80
2022-12-14T00:03:51.141Z,61.70
2022-12-14T00:06:22.713Z,61.70
2022-12-14T00:08:51.602Z,61.80
2022-12-14T00:11:19.922Z,61.70
2022-12-14T00:13:53.687Z,61.80
2022-12-14T00:16:21.262Z,61.80
2022-12-14T00:18:53.109Z,61.80
2022-12-14T00:21:20.885Z,61.70
2022-12-14T00:23:50.084Z,61.80
2022-12-14T00:26:24.707Z,61.70
2022-12-14T00:28:52.862Z,61.80
2022-12-14T00:31:20.890Z,61.70
2022-12-14T00:33:48.090Z,61.70
2022-12-14T00:36:15.040Z,61.80
2022-12-14T00:38:42.441Z,61.70
2022-12-14T00:41:10.312Z,61.70
2022-12-14T00:43:37.461Z,61.70
2022-12-14T00:46:04.938Z,61.80
2022-12-14T00:48:32.436Z,61.90
2022-12-14T00:50:59.681Z,61.80
2022-12-14T00:53:26.519Z,61.90
2022-12-14T00:55:53.411Z,61.80
2022-12-14T00:58:22.847Z,61.80
2022-12-14T01:01:03.702Z,61.80
2022-12-14T01:03:32.252Z,61.80
2022-12-14T01:05:59.477Z,61.90
2022-12-14T01:08:26.581Z,61.80
2022-12-14T01:10:53.481Z,61.80
2022-12-14T01:13:20.307Z,61.80
2022-12-14T01:15:47.150Z,61.80
2022-12-14T01:18:14.120Z,61.70
2022-12-14T01:20:40.899Z,61.70
2022-12-14T01:23:07.679Z,61.70
2022-12-14T01:25:34.471Z,61.70
2022-12-14T01:28:01.275Z,61.80
2022-12-14T01:30:28.056Z,61.70
2022-12-14T01:32:54.754Z,61.80
2022-12-14T01:35:21.627Z,61.90
2022-12-14T01:37:49.029Z,61.80
2022-12-14T01:40:16.857Z,61.80
2022-12-14T01:42:43.902Z,61.80
2022-12-14T01:45:22.160Z,61.60
2022-12-14T01:47:56.637Z,61.60
2022-12-14T01:50:30.241Z,61.70
2022-12-14T01:53:03.533Z,61.70
2022-12-14T01:55:40.065Z,61.70
2022-12-14T01:58:15.651Z,61.60
2022-12-14T02:00:44.446Z,61.80
2022-12-14T02:03:22.418Z,61.60
2022-12-14T02:05:53.998Z,61.60
2022-12-14T02:08:22.962Z,61.60
2022-12-14T02:10:51.627Z,61.50
2022-12-14T02:13:24.083Z,61.70
2022-12-14T02:15:51.682Z,61.70
2022-12-14T02:18:23.009Z,61.70
2022-12-14T02:21:20.217Z,61.70
2022-12-14T02:23:55.926Z,61.80
2022-12-14T02:26:31.710Z,61.70
2022-12-14T02:29:05.074Z,61.70
2022-12-14T02:31:32.920Z,61.70
2022-12-14T02:34:09.398Z,61.70
2022-12-14T02:36:43.766Z,61.70
2022-12-14T02:39:13.291Z,61.70
2022-12-14T02:42:13.700Z,61.70
2022-12-14T02:45:12.666Z,61.70
2022-12-14T02:47:59.662Z,61.60
2022-12-14T02:50:38.427Z,61.70
2022-12-14T02:53:14.812Z,61.60
2022-12-14T02:55:54.239Z,61.60
2022-12-14T02:58:33.987Z,61.60
2022-12-14T03:01:01.310Z,61.60
2022-12-14T03:03:28.435Z,61.50
2022-12-14T03:06:14.558Z,61.50
2022-12-14T03:08:46.085Z,61.40
2022-12-14T03:11:21.788Z,61.40
2022-12-14T03:13:57.854Z,61.40
2022-12-14T03:16:26.437Z,61.40
2022-12-14T03:19:31.571Z,61.40
2022-12-14T03:22:03.893Z,61.50
2022-12-14T03:24:45.987Z,61.40
2022-12-14T03:27:32.853Z,61.40
2022-12-14T03:30:07.948Z,61.40
2022-12-14T03:32:39.302Z,61.40
2022-12-14T03:35:25.075Z,61.30
2022-12-14T03:37:54.938Z,61.30
2022-12-14T03:40:33.773Z,61.40
2022-12-14T03:43:39.883Z,61.30
2022-12-14T03:46:26.538Z,61.30
2022-12-14T03:49:02.081Z,61.30
2022-12-14T03:51:39.112Z,61.30
2022-12-14T03:54:09.077Z,61.30
2022-12-14T03:56:40.915Z,61.30
2022-12-14T03:59:17.933Z,61.30
2022-12-14T04:02:00.434Z,61.30
2022-12-14T04:04:27.119Z,61.30
2022-12-14T04:07:17.155Z,61.30
2022-12-14T04:09:59.869Z,61.20
2022-12-14T04:13:03.423Z,61.20
2022-12-14T04:15:53.359Z,61.30
2022-12-14T04:18:48.772Z,61.30
2022-12-14T04:21:21.705Z,61.30
2022-12-14T04:24:14.763Z,61.20
2022-12-14T04:26:48.430Z,61.00
2022-12-14T04:29:41.505Z,61.10
2022-12-14T04:32:19.764Z,61.00
2022-12-14T04:34:51.185Z,61.10
2022-12-14T04:37:22.597Z,61.00
2022-12-14T04:40:21.029Z,61.00
2022-12-14T04:43:04.912Z,61.00
2022-12-14T04:45:41.154Z,61.00
2022-12-14T04:48:36.662Z,61.00
2022-12-14T04:51:15.768Z,61.00
2022-12-14T04:53:45.314Z,60.90
2022-12-14T04:56:34.747Z,60.90
2022-12-14T04:59:01.900Z,60.80
2022-12-14T05:01:48.890Z,60.70
2022-12-14T05:04:56.562Z,60.70
2022-12-14T05:07:48.656Z,60.90
2022-12-14T05:10:18.655Z,60.80
2022-12-14T05:13:00.468Z,60.90
2022-12-14T05:15:33.597Z,60.80
2022-12-14T05:18:05.002Z,60.80
2022-12-14T05:20:32.190Z,60.80
2022-12-14T05:22:59.143Z,60.70
2022-12-14T05:25:26.079Z,60.70
2022-12-14T05:27:52.983Z,60.60
2022-12-14T05:30:19.775Z,60.80
2022-12-14T05:32:46.570Z,60.90
2022-12-14T05:35:14.076Z,61.00
2022-12-14T05:37:41.992Z,60.90
2022-12-14T05:40:10.323Z,61.00
2022-12-14T05:42:42.765Z,61.00
2022-12-14T05:45:14.762Z,60.90
2022-12-14T05:47:41.513Z,60.90
2022-12-14T05:50:08.802Z,60.80
2022-12-14T05:52:35.645Z,60.70
2022-12-14T05:55:04.369Z,60.70
2022-12-14T05:57:31.997Z,60.70
2022-12-14T05:59:58.938Z,60.70
2022-12-14T06:02:25.924Z,60.70
2022-12-14T06:04:52.740Z,60.60
2022-12-14T06:07:23.090Z,60.70
2022-12-14T06:09:54.168Z,60.70
2022-12-14T06:12:20.995Z,60.80
2022-12-14T06:14:47.827Z,60.80
2022-12-14T06:17:14.776Z,60.70
2022-12-14T06:19:41.513Z,60.70
2022-12-14T06:22:08.356Z,60.70
2022-12-14T06:24:35.099Z,60.60
2022-12-14T06:27:02.044Z,60.60
2022-12-14T06:29:29.093Z,60.60
2022-12-14T06:31:55.935Z,60.60
2022-12-14T06:34:28.315Z,60.70
2022-12-14T06:36:55.351Z,60.70
2022-12-14T06:39:22.201Z,60.80
2022-12-14T06:41:50.851Z,60.70
2022-12-14T06:44:17.626Z,60.80
2022-12-14T06:46:44.860Z,60.70
2022-12-14T06:49:14.394Z,60.80
2022-12-14T06:51:42.246Z,60.80
2022-12-14T06:54:11.388Z,60.70
2022-12-14T06:56:38.804Z,60.70
2022-12-14T06:59:05.707Z,60.70
2022-12-14T07:01:32.675Z,60.70
2022-12-14T07:03:59.756Z,60.60
2022-12-14T07:06:28.578Z,60.50
2022-12-14T07:08:59.520Z,60.40
2022-12-14T07:11:27.895Z,60.40
2022-12-14T07:13:55.669Z,60.30
2022-12-14T07:16:27.614Z,60.40
2022-12-14T07:18:54.976Z,60.30
2022-12-14T07:21:22.742Z,60.10
2022-12-14T07:23:52.338Z,60.00
2022-12-14T07:26:22.315Z,60.20
2022-12-14T07:28:50.138Z,60.10
2022-12-14T07:31:23.234Z,60.00
2022-12-14T07:33:52.877Z,60.10
2022-12-14T07:36:22.332Z,60.00
2022-12-14T07:38:50.556Z,60.00
2022-12-14T07:41:31.596Z,60.00
2022-12-14T07:44:00.607Z,60.00
2022-12-14T07:46:29.910Z,60.00
2022-12-14T07:48:58.151Z,60.10
2022-12-14T07:51:28.539Z,60.10
2022-12-14T07:53:55.882Z,60.00
2022-12-14T07:56:25.574Z,60.00
2022-12-14T07:58:54.535Z,60.00
2022-12-14T08:01:23.891Z,59.90
2022-12-14T08:03:54.928Z,60.00
2022-12-14T08:06:23.357Z,60.10
2022-12-14T08:08:50.354Z,60.10
2022-12-14T08:11:18.119Z,60.10
2022-12-14T08:13:45.474Z,60.10
2022-12-14T08:16:16.685Z,60.10
2022-12-14T08:18:43.971Z,60.10
2022-12-14T08:21:12.731Z,60.10
2022-12-14T08:23:41.344Z,60.00
2022-12-14T08:26:08.860Z,60.00
2022-12-14T08:28:36.411Z,60.00
2022-12-14T08:31:11.750Z,60.00
2022-12-14T08:33:40.097Z,60.10
2022-12-14T08:36:11.034Z,60.00
2022-12-14T08:38:38.998Z,60.00
2022-12-14T08:41:08.192Z,60.10
2022-12-14T08:43:35.490Z,60.00
2022-12-14T08:46:02.754Z,59.90
2022-12-14T08:48:29.857Z,59.90
2022-12-14T08:51:05.805Z,60.00
2022-12-14T08:53:32.954Z,60.00
2022-12-14T08:56:04.884Z,59.90
2022-12-14T08:58:31.703Z,59.90
2022-12-14T09:01:03.782Z,60.00
2022-12-14T09:03:31.182Z,60.00
2022-12-14T09:06:06.874Z,60.10
2022-12-14T09:08:34.578Z,60.10
2022-12-14T09:11:03.428Z,60.10
2022-12-14T09:13:30.772Z,60.00
2022-12-14T09:16:00.212Z,60.10
2022-12-14T09:18:29.303Z,60.10
2022-12-14T09:20:56.994Z,60.10
2022-12-14T09:23:25.610Z,60.20
2022-12-14T09:26:04.759Z,60.30
2022-12-14T09:28:33.553Z,60.20
2022-12-14T09:31:02.842Z,60.30
2022-12-14T09:33:30.994Z,60.40
2022-12-14T09:36:07.404Z,60.40
2022-12-14T09:38:36.637Z,60.50
2022-12-14T09:41:07.619Z,60.60
2022-12-14T09:43:51.213Z,60.60
2022-12-14T09:46:24.611Z,60.80
2022-12-14T09:48:53.594Z,60.90
2022-12-14T09:51:24.333Z,60.90
2022-12-14T09:54:02.209Z,61.00
2022-12-14T09:56:29.540Z,61.10
2022-12-14T09:58:59.266Z,61.20
2022-12-14T10:01:50.898Z,61.10
2022-12-14T10:05:02.630Z,61.10
2022-12-14T10:07:39.928Z,61.40
2022-12-14T10:10:33.172Z,61.40
2022-12-14T10:13:37.738Z,61.50
2022-12-14T10:16:36.267Z,61.50
2022-12-14T10:19:08.942Z,61.50
2022-12-14T10:21:46.265Z,61.60
2022-12-14T10:24:40.551Z,61.60
2022-12-14T10:27:09.532Z,61.60
2022-12-14T10:29:43.086Z,61.60
2022-12-14T10:32:25.748Z,61.60
2022-12-14T10:34:52.486Z,61.70
2022-12-14T10:37:26.702Z,61.70
2022-12-14T10:40:29.212Z,61.60
2022-12-14T10:43:24.802Z,61.60
2022-12-14T10:46:14.535Z,61.70
2022-12-14T10:48:52.384Z,61.70
2022-12-14T10:51:33.252Z,61.70
2022-12-14T10:54:15.465Z,61.70
2022-12-14T10:56:43.396Z,61.70
2022-12-14T10:59:22.004Z,61.70
2022-12-14T11:01:53.071Z,61.70
2022-12-14T11:04:30.637Z,61.50
2022-12-14T11:07:07.559Z,61.60
2022-12-14T11:09:35.473Z,61.60
2022-12-14T11:12:17.522Z,62.20
2022-12-14T11:14:53.888Z,61.70
2022-12-14T11:17:40.100Z,61.80
2022-12-14T11:20:10.050Z,61.90
2022-12-14T11:22:48.934Z,62.00
2022-12-14T11:25:40.860Z,62.00
2022-12-14T11:28:22.756Z,61.90
2022-12-14T11:31:03.358Z,62.00
2022-12-14T11:33:53.865Z,62.00
2022-12-14T11:36:25.781Z,61.90
2022-12-14T11:39:12.909Z,62.00
2022-12-14T11:41:59.201Z,61.90
2022-12-14T11:44:28.395Z,61.60
2022-12-14T11:46:58.287Z,61.40
2022-12-14T11:49:46.910Z,61.50
2022-12-14T11:52:21.281Z,62.00
2022-12-14T11:55:02.877Z,62.10
2022-12-14T11:57:35.628Z,62.10
2022-12-14T12:00:24.664Z,61.90
2022-12-14T12:03:03.150Z,61.70
2022-12-14T12:05:33.532Z,61.60
2022-12-14T12:08:02.260Z,61.60
2022-12-14T12:10:44.917Z,61.50
2022-12-14T12:13:28.822Z,61.50
2022-12-14T12:15:58.270Z,61.40
2022-12-14T12:18:50.238Z,61.50
2022-12-14T12:21:28.751Z,61.40
2022-12-14T12:24:01.546Z,61.40
2022-12-14T12:26:35.660Z,61.10
2022-12-14T12:29:16.927Z,61.10
2022-12-14T12:32:05.024Z,61.20
2022-12-14T12:34:44.252Z,61.20
2022-12-14T12:37:27.556Z,61.40
2022-12-14T12:40:00.782Z,61.60
2022-12-14T12:42:58.900Z,61.60
2022-12-14T12:45:37.573Z,61.60
2022-12-14T12:48:07.774Z,61.40
2022-12-14T12:50:39.601Z,61.40
2022-12-14T12:53:43.939Z,61.40
2022-12-14T12:56:19.299Z,61.10
2022-12-14T12:58:52.412Z,61.10
2022-12-14T13:01:39.609Z,60.90
2022-12-14T13:04:11.420Z,61.10
2022-12-14T13:06:44.243Z,61.20
2022-12-14T13:09:29.647Z,61.90
2022-12-14T13:11:57.768Z,61.30
2022-12-14T13:14:35.200Z,61.70
2022-12-14T13:17:06.200Z,61.50
2022-12-14T13:19:51.080Z,62.00
2022-12-14T13:22:27.739Z,61.10
2022-12-14T13:24:59.548Z,61.30
2022-12-14T13:27:50.264Z,60.70
2022-12-14T13:30:44.298Z,59.90
2022-12-14T13:33:30.600Z,59.70
2022-12-14T13:36:29.730Z,58.40
2022-12-14T13:39:24.324Z,57.70
2022-12-14T13:42:04.845Z,57.20
2022-12-14T13:45:14.738Z,56.10
2022-12-14T13:47:48.703Z,55.50
2022-12-14T13:50:46.368Z,55.00
2022-12-14T13:53:40.166Z,54.50
2022-12-14T13:56:07.831Z,53.10
2022-12-14T13:58:41.708Z,53.00
2022-12-14T14:01:36.025Z,53.10
2022-12-14T14:04:13.269Z,53.20
2022-12-14T14:06:50.861Z,53.20
2022-12-14T14:09:27.448Z,53.10
2022-12-14T14:12:01.101Z,53.00
2022-12-14T14:14:36.340Z,53.00
2022-12-14T14:17:16.703Z,52.80
2022-12-14T14:19:49.432Z,52.90
2022-12-14T14:22:23.423Z,53.10
2022-12-14T14:24:51.119Z,53.10
2022-12-14T14:27:24.576Z,53.00
2022-12-14T14:29:52.433Z,53.00
2022-12-14T14:32:35.956Z,53.30
2022-12-14T14:35:22.582Z,53.10
2022-12-14T14:38:01.843Z,53.40
2022-12-14T14:41:06.528Z,53.60
2022-12-14T14:43:53.325Z,53.70
2022-12-14T14:46:31.417Z,53.60
2022-12-14T14:48:58.327Z,53.80
2022-12-14T14:51:32.652Z,53.70
2022-12-14T14:57:33.339Z,53.40
2022-12-14T15:00:04.668Z,53.10
2022-12-14T15:02:41.112Z,53.20
2022-12-14T15:05:41.467Z,53.20
2022-12-14T15:08:11.630Z,53.20
2022-12-14T15:10:43.892Z,53.10
2022-12-14T15:13:24.457Z,53.10
2022-12-14T15:15:56.259Z,52.90
2022-12-14T15:18:31.559Z,53.00
2022-12-14T15:21:06.132Z,53.10
2022-12-14T15:23:37.653Z,52.90
2022-12-14T15:26:17.284Z,53.10
2022-12-14T15:28:48.578Z,53.00
2022-12-14T15:31:15.597Z,52.80
2022-12-14T15:33:43.385Z,52.70
2022-12-14T15:36:16.820Z,52.90
2022-12-14T15:38:55.658Z,53.00
2022-12-14T15:41:25.830Z,53.00
2022-12-14T15:43:58.143Z,52.90
2022-12-14T15:46:35.170Z,53.10
2022-12-14T15:49:10.561Z,53.00
2022-12-14T15:51:40.079Z,53.20
2022-12-14T15:54:14.348Z,53.20
2022-12-14T15:56:44.721Z,53.10
2022-12-14T15:59:16.633Z,53.10
2022-12-14T16:01:54.388Z,53.30
2022-12-14T16:04:23.316Z,53.30
2022-12-14T16:06:56.951Z,53.50
2022-12-14T16:09:26.124Z,53.60
2022-12-14T16:12:01.045Z,53.50
2022-12-14T16:14:44.089Z,53.60
2022-12-14T16:17:20.939Z,53.70
2022-12-14T16:20:00.268Z,53.90
2022-12-14T16:22:30.210Z,53.90
2022-12-14T16:25:11.620Z,54.10
2022-12-14T16:27:41.702Z,54.70
2022-12-14T16:30:27.191Z,54.10
2022-12-14T16:33:07.241Z,54.00
2022-12-14T16:35:36.898Z,54.30
2022-12-14T16:38:14.848Z,54.80
2022-12-14T16:40:54.190Z,54.30
2022-12-14T16:43:26.569Z,54.50
2022-12-14T16:46:05.655Z,54.40
2022-12-14T16:48:35.825Z,54.30
2022-12-14T16:51:44.919Z,54.40
2022-12-14T16:54:33.294Z,54.40
2022-12-14T16:57:01.685Z,54.50
2022-12-14T16:59:37.731Z,54.50
2022-12-14T17:02:05.373Z,55.10
2022-12-14T17:04:36.535Z,54.50
2022-12-14T17:07:03.952Z,54.50
2022-12-14T17:09:33.380Z,54.50
2022-12-14T17:12:02.806Z,54.60
2022-12-14T17:14:29.634Z,54.50
2022-12-14T17:17:01.598Z,54.60
2022-12-14T17:19:39.233Z,54.50
2022-12-14T17:22:24.784Z,54.60
2022-12-14T17:24:51.523Z,54.50
2022-12-14T17:27:22.215Z,54.60
2022-12-14T17:29:49.872Z,54.90
2022-12-14T17:32:18.145Z,54.90
2022-12-14T17:34:45.514Z,54.90
2022-12-14T17:37:17.407Z,55.00
2022-12-14T17:39:44.204Z,55.10
2022-12-14T17:42:17.036Z,55.00
2022-12-14T17:44:51.808Z,55.00
2022-12-14T17:47:18.580Z,55.30
2022-12-14T17:49:45.756Z,55.40
2022-12-14T17:52:22.967Z,55.40
2022-12-14T17:54:49.745Z,55.40
2022-12-14T17:57:22.208Z,55.30
2022-12-14T17:59:49.732Z,55.40
2022-12-14T18:02:27.573Z,55.20
2022-12-14T18:04:54.516Z,55.20
2022-12-14T18:07:21.319Z,55.20
2022-12-14T18:09:50.385Z,55.10
2022-12-14T18:12:25.281Z,55.30
2022-12-14T18:14:52.546Z,55.70
2022-12-14T18:17:19.402Z,55.50
2022-12-14T18:19:47.973Z,55.70
2022-12-14T18:22:16.799Z,55.70
2022-12-14T18:24:43.804Z,55.50
2022-12-14T18:27:14.177Z,55.50
2022-12-14T18:29:40.925Z,55.30
2022-12-14T18:32:13.605Z,55.50
2022-12-14T18:34:41.203Z,56.10
2022-12-14T18:37:08.658Z,55.60
2022-12-14T18:39:35.657Z,55.50
2022-12-14T18:42:02.655Z,55.50
2022-12-14T18:44:29.394Z,55.20
2022-12-14T18:46:59.748Z,55.60
2022-12-14T18:49:32.637Z,55.70
2022-12-14T18:51:59.447Z,55.60
2022-12-14T18:54:26.547Z,55.70
2022-12-14T18:56:53.454Z,55.60
2022-12-14T18:59:20.192Z,55.60
2022-12-14T19:01:47.096Z,55.50
2022-12-14T19:04:14.503Z,55.50
2022-12-14T19:06:44.541Z,55.60
2022-12-14T19:09:13.146Z,55.50
2022-12-14T19:11:41.964Z,55.60
2022-12-14T19:14:09.357Z,55.60
2022-12-14T19:16:36.317Z,55.60
2022-12-14T19:19:03.233Z,55.70
2022-12-14T19:21:31.411Z,55.80
2022-12-14T19:23:59.579Z,55.90
2022-12-14T19:26:28.608Z,56.00
2022-12-14T19:28:55.916Z,55.90
2022-12-14T19:31:22.928Z,55.70
2022-12-14T19:33:50.005Z,55.90
2022-12-14T19:36:16.849Z,56.00
2022-12-14T19:38:44.832Z,55.90
2022-12-14T19:41:17.856Z,56.00
2022-12-14T19:43:44.790Z,55.90
2022-12-14T19:46:14.009Z,55.90
2022-12-14T19:48:42.193Z,55.80
2022-12-14T19:51:11.227Z,55.80
2022-12-14T19:53:39.545Z,55.80
2022-12-14T19:56:07.161Z,55.70
2022-12-14T19:58:34.051Z,55.70
2022-12-14T20:01:00.842Z,56.00
2022-12-14T20:03:28.626Z,56.00
2022-12-14T20:06:01.440Z,56.00
2022-12-14T20:08:29.881Z,56.00
2022-12-14T20:10:57.344Z,56.00
2022-12-14T20:13:25.563Z,56.00
2022-12-14T20:15:54.774Z,56.10
2022-12-14T20:18:22.658Z,56.20
2022-12-14T20:20:50.830Z,56.30
2022-12-14T20:23:20.368Z,56.90
2022-12-14T20:25:47.387Z,56.40
2022-12-14T20:28:14.854Z,56.40
2022-12-14T20:30:47.093Z,56.30
2022-12-14T20:33:14.354Z,56.40
2022-12-14T20:35:41.219Z,56.50
2022-12-14T20:38:08.225Z,56.50
2022-12-14T20:40:38.752Z,56.50
2022-12-14T20:43:06.957Z,56.40
2022-12-14T20:45:42.412Z,56.40
2022-12-14T20:48:09.869Z,57.10
2022-12-14T20:50:38.338Z,56.60
2022-12-14T20:53:05.347Z,56.70
2022-12-14T20:55:33.063Z,56.70
2022-12-14T20:57:59.858Z,56.80
2022-12-14T21:00:27.573Z,56.90
2022-12-14T21:02:54.401Z,56.70
2022-12-14T21:05:21.404Z,56.70
2022-12-14T21:07:48.724Z,56.30
2022-12-14T21:10:15.552Z,56.40
2022-12-14T21:12:42.419Z,56.60
2022-12-14T21:15:09.477Z,56.60
2022-12-14T21:17:36.283Z,56.40
2022-12-14T21:20:03.508Z,56.40
2022-12-14T21:22:30.686Z,56.40
2022-12-14T21:25:06.454Z,56.60
2022-12-14T21:27:40.807Z,56.50
2022-12-14T21:30:10.485Z,56.40
2022-12-14T21:32:37.697Z,56.60
2022-12-14T21:35:05.536Z,56.70
2022-12-14T21:37:32.380Z,56.70
2022-12-14T21:40:00.103Z,56.70
2022-12-14T21:42:26.883Z,56.70
2022-12-14T21:44:54.217Z,56.60
2022-12-14T21:47:26.587Z,56.70
2022-12-14T21:49:53.537Z,56.70
2022-12-14T21:52:23.263Z,56.70
2022-12-14T21:54:50.455Z,56.70
2022-12-14T21:57:40.544Z,56.80
2022-12-14T22:00:09.832Z,56.80
2022-12-14T22:02:36.757Z,56.80
2022-12-14T22:05:04.593Z,56.90
2022-12-14T22:07:33.318Z,57.00
2022-12-14T22:10:00.363Z,57.10
2022-12-14T22:12:28.381Z,57.20
2022-12-14T22:14:55.333Z,57.10
2022-12-14T22:17:22.176Z,57.20
2022-12-14T22:19:51.017Z,57.20
2022-12-14T22:22:17.953Z,57.10
2022-12-14T22:24:47.861Z,57.10
2022-12-14T22:27:14.950Z,57.10
2022-12-14T22:29:41.900Z,57.20
2022-12-14T22:32:11.949Z,57.30
2022-12-14T22:34:38.810Z,57.30
2022-12-14T22:37:05.808Z,57.20
2022-12-14T22:39:32.657Z,57.30
2022-12-14T22:41:59.817Z,57.40
2022-12-14T22:44:26.611Z,57.40
2022-12-14T22:46:53.539Z,57.40
2022-12-14T22:49:20.694Z,57.50
2022-12-14T22:51:47.400Z,57.40
2022-12-14T22:54:32.563Z,57.30
2022-12-14T22:57:07.790Z,57.40
2022-12-14T22:59:42.469Z,57.40
2022-12-14T23:02:09.593Z,57.40
2022-12-14T23:04:37.960Z,57.50
2022-12-14T23:07:05.246Z,57.50
2022-12-14T23:09:50.769Z,57.50
2022-12-14T23:12:36.429Z,57.50
2022-12-14T23:15:22.811Z,57.60
2022-12-14T23:18:08.292Z,57.80
2022-12-14T23:20:53.618Z,57.70
2022-12-14T23:23:38.990Z,57.70
2022-12-14T23:26:24.380Z,57.70
2022-12-14T23:29:10.100Z,57.60
2022-12-14T23:31:55.385Z,57.70
2022-12-14T23:34:40.968Z,58.10
2022-12-14T23:37:26.599Z,58.20
2022-12-14T23:40:11.878Z,58.40
2022-12-14T23:42:57.564Z,59.00
2022-12-14T23:45:42.985Z,59.40
2022-12-14T23:48:28.596Z,59.30
2022-12-14T23:51:13.999Z,59.10
2022-12-14T23:53:59.481Z,58.90
2022-12-14T23:56:45.101Z,58.90
2022-12-14T23:59:32.614Z,58.90
